k, 2018 május 22. @ 17:35 (Europe/Budapest) | Időzóna választás

Keresés

Keresés

Találd meg a csapatokat és bajnokságokat gyorsan

Hasonlitás

Hasonlitás

Klikkelj erre h2h az ikonra bárhol a csapatok összehasonlitásához és a statisztikák megtekintéséhez

Mérkőzések

Mérkőzések

Nézd meg a mai mérkőzések, a holnapi mérkőzések, a tegnapi eredmények listáját vagy bármely dátum mérkőzéseit a naptár segitségével


Legnépszerűbb bajnokságok


Tippjáték, totó, virtuális fogadások - több, mint 1.000 Euró havi nyeremények ITT!

Mérkőzések - 2018.02.17

Csoportosítás: bajnokság szerint | idő szerint
Idő Hazai Eredmény Vendég 1 X 2 H2H
 Futball Anglia Championship 2017/2018
16:00 Q.P.R. 2 : 0 Bolton 1.77 3.57 4.67
16:00 Burton 0 : 0 Nottingham 3.20 3.16 2.31
16:00 Preston 1 : 1 Wolverhampton 3.60 3.19 2.12
16:00 Birmingham 0 : 1 Millwall 2.68 3.10 2.72
16:00 Fulham 2 : 0 Aston Villa 1.99 3.42 3.72
16:00 Sunderland 0 : 2 Brentford 3.31 3.42 2.13
16:00 Cardiff 1 : 0 Middlesbrough 2.39 3.01 3.20
 Futball Anglia Conference National 2017/2018
16:00 Torquay 0 : 3 Dagenham & Redbridge 2.09 3.27 3.23
16:00 Hartlepool 3 : 2 Woking 2.48 3.25 2.60
16:00 Chester 3 : 1 Eastleigh 3.09 3.35 2.09
16:00 Sutton UTD 1 : 1 Wrexham 1.87 3.26 3.88
16:00 Halifax 1 : 2 Ebbsfleet United 2.89 3.13 2.32
16:00 Boreham Wood 2 : 1 Gateshead 1.84 3.28 4.08
16:00 Solihull 3 : 2 Dover Athletic 2.46 3.18 2.67
16:00 Guiseley 1 : 3 Maidenhead United 2.76 3.26 2.34
16:00 Alderschot 1 : 2 Macclesfield 2.12 3.20 3.31
16:00 Tranmere 1 : 0 Bromley 1.53 3.88 5.49
16:00 Maidstone United 0 : 1 Barrow 2.04 3.35 3.30
16:00 Fylde 0 : 1 Leyton 1.73 3.68 4.06
 Futball Anglia FA Cup 2017/2018
13:30 Sheffield Wednesday 0 : 0 Swansea 3.25 3.24 2.28
16:00 West Bromwich 1 : 2 Southampton 2.94 3.19 2.48
16:15 Brighton 3 : 1 Coventry 1.34 4.75 10.15
18:30 Huddersfield 0 : 2 Manchester United 6.30 3.92 1.56
 Futball Anglia League One 2017/2018
16:00 Shrewsbury 0 : 1 Rotherham 2.40 3.21 2.88
16:00 Gillingham 0 : 0 Walsall 2.08 3.26 3.48
16:00 Scunthorpe 2 : 2 Northampton 1.82 3.49 4.18
16:00 Doncaster 3 : 0 Fleetwood Town 2.10 3.15 3.55
16:00 Oxford 0 : 1 Plymouth 2.37 3.39 2.80
16:00 AFC Wimbledon 1 : 0 Bristol Rovers 2.42 3.25 2.85
16:00 Southend 3 : 1 Portsmouth 2.82 3.13 2.49
16:00 Milton Keynes 1 : 2 Charlton 3.15 3.19 2.25
 Futball Anglia League Two 2017/2018
16:00 Swindon 3 : 2 Port Vale 1.95 3.37 3.72
16:00 Exeter 0 : 1 Mansfield 2.81 3.28 2.40
16:00 Carlisle 2 : 0 Chesterfield 1.73 3.53 4.62
16:00 Stevenage 4 : 1 Yeovil 2.15 3.24 3.29
16:00 Crewe 1 : 0 Colchester 2.83 3.33 2.36
16:00 Cambridge 3 : 1 Grimsby 2.10 3.25 3.38
16:00 Barnet 1 : 1 Accrington Stanley 2.95 3.27 2.30
16:00 Newport 0 : 0 Notts County 2.55 3.24 2.65
16:00 Crawley Town 3 : 1 Lincoln 3.29 3.31 2.11
16:00 Morecambe 1 : 1 Forest Green 2.20 3.25 3.17
16:00 Cheltenham 0 : 2 Wycombe 2.46 3.31 2.71
 Futball Argentina Primera Division 2017/2018
01:15 Belgrano 2 : 2 Velez Sarsfield 2.34 2.90 3.07
21:00 San Lorenzo 1 : 0 Newell's 1.71 3.30 4.83
21:00 Argentinos 2 : 2 Atlético Tucumán 2.10 2.98 3.49
23:15 Temperley 0 : 0 Independiente 3.21 2.96 2.23
 Futball Ausztrália A-League 2017/2018
07:35 Wellington Phoenix 2 : 1 Perth Glory 2.20 3.56 2.90
09:50 Adelaide United 2 : 2 Central Coast Mariners 1.74 3.55 4.45
 Futball Ausztria Bundesliga 2017/2018
16:00 Rapid Wien 1 : 1 Sturm Graz 1.80 3.61 4.04
18:30 Mattersburg SV 2 : 1 Austria Wien 2.15 3.33 3.17
18:30 LASK Linz 2 : 0 SC Rheindorf Altach 1.55 3.76 5.90
18:30 St. Andrä 1 : 3 Fc Admira 1.91 3.29 4.02
 Kézilabda Ausztria HLA M 2017/2018
18:00 Austria Fivers Aon 31 : 25 West Wien 1.27 11.50 4.51
 Futball Belgium 1e Klasse 2017/2018
18:00 FC Antwerp 0 : 0 Oostende 2.00 3.39 3.58
20:00 Waregem 3 : 2 Eupen 1.57 4.00 5.45
20:00 Lokeren KSC 0 : 1 Kortrijk 2.38 3.22 2.94
20:30 Club Brugge 2 : 2 Genk 1.49 4.17 6.30
 Futball Belgium 2e Klasse 2017/2018
17:00 Union St-Gilloise 1 : 1 Cercle Brugge 2.40 3.10 2.74
20:30 Oud Heverlee 1 : 1 Beerschot 2.04 3.23 3.32
 Futball Bosznia Premier Liga 2017/2018
14:30 Zrinjski Mostar 3 : 2 Gabela GOSK 1.16 6.50 10.10
14:30 Sloboda Tuzla 2 : 0 Mladost Doboj Kakanj 1.90 3.35 3.42
14:30 Krupa na Vrbasu 2 : 4 Zeljeznicar Sarajevo 4.70 3.66 1.60
17:30 Celik Zenica 1 : 0 Vitez NK 1.34 4.32 7.40
 Futball Bulgária A PFG 2017/2018
12:00 Etar Veliko Tarnovo 3 : 3 Septemvri Sofia 1.77 3.18 4.61
14:00 Vereya Stara Zagora 0 : 5 CSKA Sofia 11.55 4.62 1.27
16:30 Černo More Varna 1 : 4 Beroe Stara Zagora 2.53 2.88 2.82
 Futball Chile Primera Division 2018
16:00 Everton 0 : 1 Universidad Católica 2.64 3.24 2.42
22:00 Palestino 2 : 1 Colo Colo 5.70 4.12 1.48
 Kézilabda CL Champions League M 2017/2018
16:00 Kielce Vive KS 37 : 31 Celje Pivovarna Lasko 1.15 14.50 7.56
17:30 Veszprém 34 : 22 Brestskiy HC Meshkovo 1.12 16.00 8.44
17:30 Paris Handball 29 : 21 Flensburg-Handewitt 1.22 13.25 5.56
19:30 FC Barcelona 28 : 27 Wisla Plock SSA 1.08 17.25 11.31
20:00 Croatia Osiguranje-Zagreb 23 : 22 Nantes HBC 3.24 9.75 1.49
 Futball Csehország 1. liga 2017/2018
15:00 Ostrava Baník 1 : 2 Slovácko 1. FC 1.87 3.23 4.01
15:00 Mladá Boleslav 0 : 1 Karviná FC 1.70 3.46 4.50
15:00 Jablonec 2 : 1 Teplice 1.93 3.18 3.78
15:00 Zlín 1 : 1 Dukla Praha FK 1.66 3.60 4.69
16:30 Jihlava 1 : 0 Slavia Praha 9.25 5.05 1.26
18:30 Bohemians 1905 1 : 0 Brno 1.98 3.01 3.88
 Jégkorong Csehország 1st League 2017/2018
16:00 Kladno 3 : 1 Havířov 1.50 4.92 4.32
16:00 Karlovy Vary 4 : 1 České Budějovice 2.05 4.10 2.68
17:00 Ústí n. Labem 4 : 2 Prostějov 2.77 4.34 1.95
17:00 Benátky 1 : 4 Litoměřice 3.55 4.20 1.71
17:30 Vsetín 2 : 1 ot(p) Fr 1.56 4.92 3.93
17:30 Třebíč 4 : 0 Kadaň 1.10 9.00 12.50
 Kézilabda Csehország Extraleague M 2017/2018
16:30 Dukla Praha 32 : 24 Strakonice 1.05 18.67 13.00
17:00 Brno 24 : 27 Zubří 2.80 8.67 1.60
18:00 Kopřivnice 27 : 32 Karviná Baník 2.00 9.00 2.07
19:00 Nov 25 : 28 Frýdek- Místek 1.52 9.50 3.00
 Kosárlabda Dánia 1st League M 2017/2018
14:00 Bakken Bears 100 : 82 Randers Cimbria 1.02 - 8.38
 Kézilabda Dánia 1st League M 2017/2018
16:00 Sonderjyske 30 : 26 Nordsjalland Handbold 1.77 8.63 2.44
16:10 Kolding KIF 32 : 31 Svendborg TGI 3.73 10.13 1.38
 Kézilabda Dánia 1st League W 2017/2018
15:00 Ajax Kobenhavn 27 : 26 Tvis Holstebro 6.50 13.50 1.16
15:00 Arhus SK 24 : 20 Ringkobing 1.44 9.50 3.44
 Futball Dánia Superligaen 2017/2018
16:00 Silkeborg IF 1 : 1 Lyngby Kobenhavn 1.90 3.65 3.79
 Futball Ecuador Primera A 2018
01:30 Barcelona 3 : 2 Universidad Catolica Quito 1.30 4.73 8.20
18:00 El Nacional Quito 1 : 2 Emelec Guayaquil 2.62 3.07 2.48
22:00 Macará 1 : 3 Independiente José Terán 2.32 3.03 2.86
 Jégkorong Finnország Mestis 2017/2018
16:00 Iisalmen Peli-Karhut 1 : 0 Hermes Kokkola 1.90 4.44 2.88
16:00 RoKi Rovaniemi 2 : 3 LeKi 1.97 4.36 2.80
16:00 Kiekko-Vantaa 2 : 1 EPS Espoo 1.92 4.28 2.95
16:00 Kettera Imarta 4 : 3 Tuto Turku 2.25 4.31 2.38
16:00 SaPKo Savonlinnan 5 : 1 KeuPa HT 1.96 4.35 2.83
 Jégkorong Finnország SM Liiga 2017/2018
14:00 KooKoo Kouvola 2 : 3 Ilves Tampere 3.30 4.47 1.82
16:00 Jyp Jyväskylä 4 : 1 Jukurit Mikkeli 1.28 6.08 7.17
16:00 TPS Turku 4 : 1 Lukko Rauma 1.77 4.15 3.67
16:00 IFK Helsinki 3 : 1 Hämeenlinna 1.63 4.28 4.31
16:00 Lahti Pelicans 4 : 3 ot(p) Ässät Pori 2.12 4.12 2.72
16:00 Kärpät 3 : 4 ot(p) Saipa 1.63 4.48 4.07
17:30 Kalpa Kuopio 5 : 1 Sport Vaasa 1.48 4.90 5.07
 Futball Finnország Suomen Cup 2018
12:00 Rovaniemi RoPS 4 : 2 Kajaani AC 1.36 4.89 6.35
13:00 HJK Helsinki 5 : 1 KTP Kotka 1.01 14.60 32.00
13:00 Oulu 2 : 6 KuPS Kuopio 7.00 5.17 1.31
13:30 Ilves Tampere 2 : 2 Lahti FC 2.14 3.28 3.04
15:30 Viikingit Helsinki 0 : 1 JJK Jyväskylä 3.07 3.54 2.03
16:45 Vaasa VPS 6 : 0 TPV Pallo Veikot Tampere 1.08 8.60 16.80
18:00 Klubi-04 Helsinki 2 : 3 EIF Tammisaari 1.91 3.83 3.18
 Futball Franciaország Ligue 1 2017/2018
17:00 Paris SG 5 : 2 Strasbourg 1.04 14.60 35.40
20:00 Caen 2 : 2 Rennes 2.49 3.07 3.00
20:00 Montpellier 1 : 1 Guingamp 1.73 3.48 5.24
20:00 Troyes 1 : 0 Metz 2.35 3.17 3.15
20:00 Amiens 0 : 0 Toulouse 2.65 2.98 2.90
20:00 Angers 0 : 1 St. Etienne 2.51 3.06 3.00
 Futball Franciaország Ligue 2 2017/2018
15:00 Lorient 1 : 3 Auxerre 1.69 3.56 4.60
 Futball Franciaország National 2017/2018
15:00 Red Stars 0 : 1 Grenoble 2.58 2.64 2.96
 Kézilabda Franciaország Pro A W 2017/2018
20:00 Le Havre 24 : 30 Issy Les Moulineaux 3.56 9.25 1.40
20:00 Besancon ESBF 26 : 32 Nantes 1.83 8.50 2.30
20:00 Fleury 24 : 25 Nice 2.55 8.88 1.68
20:30 Toulon/Saint-Cyr 21 : 28 Metz 10.25 15.50 1.07
20:30 Chambray Touraine 17 : 22 Brest Bretagne 6.13 12.00 1.18
 Futball Görögország B Ethniki 2017/2018
14:00 Sparti 0 : 3 OFI Crete 4.97 3.35 1.66
14:00 Panahaiki Patras 0 : 1 Aiginiakos 1.07 8.70 18.80
 Futball Görögország Super League 2017/2018
14:00 Kerkyra 2 : 0 Apollon Smirnis 2.80 2.84 2.81
16:15 Asteras Tripolis 0 : 1 Atromitos Athinon FC 2.57 2.78 3.11
18:30 Lamia 0 : 2 PAOK Saloniki 13.20 5.08 1.26
 Futball Hollandia Eredivisie 2017/2018
18:30 Vitesse Arnheim 1 : 2 Excelsior 1.38 4.48 7.90
19:45 PSV Eindhoven 2 : 2 Heerenveen 1.34 5.16 7.65
19:45 NAC Breda 1 : 3 AZ Alkmaar 5.20 3.95 1.59
20:45 ADO den Haag 2 : 1 Willem Tilburg 1.97 3.43 3.62
 Futball Horvátország 1. HNL 2017/2018
15:00 HNK Osijek 2 : 1 HNK Rijeka 2.86 2.92 2.50
17:00 Istra 1961 Pula 1 : 0 Lokomotiva Zagreb 3.90 2.97 2.02
 Kézilabda Horvátország 1.liga M 2017/2018
17:30 Sesvete 28 : 29 Zamet - - -
18:00 Umag 27 : 24 Karlovac - - -
18:00 Metalac 32 : 29 Gorica 2.50 8.50 1.73
18:00 Varteks Di Caprio 31 : 26 Spacva Vinkovci 1.22 12.00 5.50
19:00 Poreč 19 : 24 Dubrava - - -
 Futball Irország Premier League 2018
20:45 Sligo Rovers 0 : 1 Limerick 37 2.00 3.21 3.51
 Kosárlabda Izrael 1st League M 2017/2018
19:30 Galil Elyon 86 : 85 Hapoel Tel Aviv 1.95 11.50 1.82
 Futball Izrael Ligat Al 2017/2018
15:00 Maccabi Tel Aviv 0 : 1 Hapoel Ranana 1.20 5.50 12.00
17:00 Ashdod SC 3 : 2 Hapoel Acre 1.97 3.02 3.80
17:15 Bnei Sakhnin 1 : 0 Maccabi Haifa 3.79 3.11 1.93
19:30 Hapoel Beer Sheva 3 : 0 Maccabi Petah-Tikva 1.42 3.90 7.25
 Jégkorong Jégkorong NHL 2017/2018
01:00 Columbus 1 : 2 ot Philadelphia 2.13 3.88 2.92
01:30 Carolina 0 : 3 NY Islanders 1.83 4.08 3.58
02:00 Atlanta 6 : 1 Colorado 1.77 4.12 3.85
02:30 Dallas 2 : 1 St. Louis 2.16 3.88 2.90
19:00 Buffalo 2 : 4 Los Angeles 2.93 3.78 2.15
20:00 Ottawa 6 : 3 NY Rangers 2.33 3.74 2.61
20:00 Minnesota 2 : 3 ot(p) Anaheim 2.27 3.76 2.73
22:00 Phoenix 1 : 0 Edmonton 2.47 3.79 2.41
 Futball Kolumbia Primera División 2018
22:00 Jaguares de Cordoba 2 : 0 Deportes Tolima 3.02 2.81 2.40
 Kézilabda Lengyelország 1.liga M 2017/2018
16:00 Elblag Darad 27 : 20 Piotrkowianin-Kiper 2.75 8.63 1.61
17:00 Kwidzyn MMTS 26 : 34 Gwardia Opole 1.38 9.75 3.63
18:00 Chroby Glogow AMD 30 : 25 Legionowo KPR 1.12 14.50 7.63
 Kézilabda Lengyelország 1.liga W 2017/2018
15:00 Koscierzyna PCM 25 : 37 Elblag Start 10.50 18.50 1.05
17:00 Ruch Chorzów 20 : 33 Pogon Szczecin 15.00 23.00 1.01
17:00 Piotrkow Piotrcovia 20 : 29 Lublin Zaglebie 5.00 12.00 1.22
17:00 Kobierzyce KPR 30 : 18 Kielce Vive 1.17 14.00 5.75
17:30 Jelenia Góra MKS 25 : 33 Laczpol Gdynia 10.00 18.00 1.06
18:00 Lublin MKS 31 : 24 Politechnika KU AZS 1.14 14.00 6.75
 Futball Lengyelország Ekstraklasa 2017/2018
15:30 Plock 2 : 0 Zaglebie Lubin 2.02 3.28 3.48
18:00 Jagiellonia Bialystok 1 : 0 Cracovia Kraków 1.69 3.65 4.65
20:30 Wisla Kraków 3 : 2 Arka Gdynia 2.01 3.28 3.56
 Kosárlabda Lengyelország Ekstraklasa W 2017/2018
18:15 Poznan AZS 66 : 80 Sosnowiec KS 1.55 - 2.20
 Futball Macedónia First League 2017/2018
14:00 Renova FK 0 : 0 Sileks Krakovo 2.33 3.15 2.75
 Kosárlabda Magyarország 1st League W 2017/2018
16:00 BEAC Újbuda 68 : 62 Bajai NKK - - -
 Futball Mexikó Primera Division 2017/2018
02:00 Atl. Morelia 2 : 1 Lobos BUAP 2.03 3.32 3.31
 Futball Németország 2. Liga 2017/2018
13:00 Ingolstadt 0 : 1 St. Pauli 1.66 3.65 5.08
13:00 Holstein Kiel 2 : 2 Aue Erzgebirge 1.54 4.00 5.85
13:00 Düsseldorf 1 : 1 Fürth 1.79 3.52 4.37
13:00 Bielefeld 2 : 0 Darmstatd 98 1.87 3.44 4.00
 Futball Németország 3. Liga 2017/2018
14:00 W 1 : 1 Zwickau 1.56 3.57 5.95
14:00 Fortuna K 1 : 0 Wehen SV 3.41 3.24 2.06
14:00 Bremen (Am.) 1 : 3 Magdeburg FC 4.57 3.44 1.72
14:00 Chemnitzer 2 : 1 Unterhaching 2.80 3.28 2.37
14:00 Sonnenhof Grossaspach SG 0 : 0 Jena 2.39 3.14 2.84
14:00 Hallescher 0 : 1 Karlsruher 2.98 3.02 2.38
 Futball Németország Bundesliga 2017/2018
15:30 Wolfsburg 1 : 2 Bayern München 7.50 4.61 1.40
15:30 Freiburg 1 : 0 Werder Bremen 2.61 3.32 2.64
15:30 Hamburg SV 1 : 2 Leverkusen 3.86 3.46 1.94
15:30 Köln 1 : 1 Hannover 96 2.07 3.52 3.38
18:30 Schalke 04 2 : 1 Hoffenheim 2.01 3.48 3.67
 Kézilabda Németország Bundesliga M 2017/2018
20:30 Leipzig DHfK 22 : 23 Magdeburg 1.91 8.38 2.29
 Kézilabda Németország Bundesliga W 2017/2018
17:30 R 23 : 33 Buxtehuder SV 16.50 21.00 1.01
19:00 Bad Wildungen/Fr./B. 29 : 27 Bensheim-Auerbach HSG 1.27 11.00 4.50
19:00 Frisch Auf Göppingen 18 : 26 Thüringer HC 4.50 11.50 1.26
19:30 Metzingen TuS 35 : 18 Neckarsulmer 1.01 21.00 16.00
19:30 Dortmund Borussia 29 : 16 Nellingen TV 1.12 14.33 7.67
 Futball Olaszország Serie A 2017/2018
15:00 Udinese 0 : 2 AS Roma 4.46 3.58 1.79
18:00 Chievo Verona 2 : 1 Cagliari 2.19 3.07 3.55
20:45 Genoa FC 2 : 0 Inter Milan 3.31 3.07 2.31
 Futball Olaszország Serie B 2017/2018
15:00 Empoli AC 4 : 0 Parma 1.84 3.24 4.39
15:00 Perugia 1 : 0 Palermo 2.27 3.01 3.24
15:00 Cesena 0 : 1 Cittadella 2.96 3.11 2.40
15:00 Novara 1 : 1 Spezia 2.33 2.79 3.40
15:00 Venezia AC 3 : 1 Avellino 1.81 3.24 4.53
15:00 Foggia 3 : 0 Carpi 1.93 3.27 3.90
15:00 Salernitana 0 : 0 Pro Vercelli 1.85 3.28 4.30
15:00 Entella 0 : 0 Pescara 2.56 3.29 2.61
 Futball Portugália Liga Sagres 2017/2018
17:00 Aves 0 : 0 Marítimo 1.71 3.39 5.00
19:15 Benfica Lisabon 4 : 0 Boavista Porto 1.18 6.15 14.00
21:30 Estoril 0 : 2 Belenenses 1.96 3.24 3.85
 Futball Portugália Liga Vitalis 2017/2018
12:15 Gil Vicente 0 : 0 Sporting Lisabon B 2.36 3.09 2.85
16:00 Braga B 1 : 3 Arouca 2.79 2.88 2.57
19:00 Coimbra 1 : 2 Guimaraes B 1.44 3.96 6.65
 Futball Románia Liga I 2017/2018
13:00 Sepsi Sfantu Gheorghe 1 : 1 Concordia 2.39 2.87 3.17
19:45 CFR Cluj 2 : 0 Astra Ploiesti 1.46 3.65 8.00
 Futball Skócia Challenge Cup 2017/2018
20:35 Llansantffraid 1 : 2 Dumbarton 1.44 4.14 6.10
 Futball Skócia First Division 2017/2018
16:00 Brechin 0 : 1 Falkirk FC 8.10 5.02 1.30
16:00 Queen of the South 1 : 1 Greenock Morton 2.27 3.35 2.76
16:00 Livingston 4 : 1 St. Mirren 2.83 3.23 2.30
 Futball Skócia Premier League 2017/2018
13:30 Ross County 1 : 1 Hearts of Midlothian 3.01 3.23 2.29
16:00 Partick Thistle 1 : 2 Dundee FC 2.30 3.18 3.03
16:00 Motherwell FC 0 : 1 Kilmarnock FC 2.34 3.17 2.95
16:00 Hibernian 2 : 0 Aberdeen FC 2.49 3.22 2.72
 Futball Skócia Second Division 2017/2018
16:00 Albion Rovers 2 : 2 Raith Rovers 4.78 4.13 1.53
16:00 Forfar 5 : 1 Stranraer 2.70 3.46 2.24
16:00 Airdrieonians 2 : 1 Queen's Park FC 1.90 3.52 3.40
16:00 Ayr. United 3 : 0 East Fife 1.38 4.67 5.95
16:00 Arbroath 0 : 0 Alloa 1.86 3.48 3.56
 Futball Skócia Third Division 2017/2018
16:00 Clyde 2 : 0 Cowdenbeath 1.65 3.70 4.38
16:00 Stenhousehuir 1 : 0 Edinburgh City 1.54 3.88 5.14
16:00 Peterhead 1 : 1 Berwick 1.24 5.55 8.55
16:00 Elgin 2 : 2 Montrose 2.31 3.42 2.64
16:00 Stirling Albion 3 : 0 Annan Athletic 2.13 3.32 3.00
 Kézilabda Spanyolország Asobal M 2017/2018
17:00 Caja Espana Ademar 33 : 29 CD Bidasoa 1.11 15.50 8.50
18:30 Puerto Sagunto CB 24 : 26 Rayet Guadalajara 2.67 8.13 1.68
18:30 Benidorm 23 : 24 Cuenca Ciudad Encantada 1.83 7.88 2.41
20:00 Darien Logrono 35 : 18 Frig. Morrazo Cangas 1.02 21.25 16.25
 Futball Spanyolország La Liga 2017/2018
13:00 Las Palmas 1 : 2 FC Sevilla 3.41 3.67 2.03
16:15 Eibar 0 : 2 FC Barcelona 7.45 4.84 1.40
18:30 Alavés 1 : 0 Deportivo La Coruna 1.80 3.57 4.66
20:45 Fc Malaga 1 : 2 FC Valencia 3.80 3.46 1.98
 Futball Spanyolország Liga BBVA 2017/2018
16:00 Osasuna 0 : 0 Reus 1.68 3.17 5.90
18:00 Oviedo 0 : 0 Albacete 1.58 3.43 6.55
18:00 Alcorcón 1 : 1 Tenerife CD 2.11 2.95 3.74
20:00 Lorca 0 : 0 Sporting Gijon 3.78 3.22 1.98
20:30 Gimnástico de Tarragona 0 : 2 Zaragoza 2.64 2.97 2.74
 Futball Spanyolország Segunda B - Group I 2017/2018
17:00 Rapido Bouzas 1 : 1 Valladolid B 1.42 3.96 6.60
 Futball Spanyolország Segunda B - Group II 2017/2018
16:00 Gernika 0 : 0 Barakaldo 2.29 3.00 2.91
17:00 Arenas de Getxo 1 : 1 Amorebieta 1.95 3.13 3.54
 Futball Spanyolország Segunda B - Group III 2017/2018
17:00 Villarreal B 2 : 0 Ebro 1.62 3.25 5.45
17:00 Valencia FC B 1 : 0 Llagostera 2.14 2.93 3.26
 Futball Svájc Challenge League 2017/2018
19:00 Rapperswil-Jona 3 : 1 Schaffhausen FC 3.11 3.15 2.16
 Futball Svájc Super League 2017/2018
19:00 Lugano AC 1 : 0 Grasshoppers Zürich 1.99 3.27 3.64
19:00 FC Basel 0 : 2 St. Gallen 1.20 6.15 11.45
 Jégkorong Svédország Allsvenskan 2017/2018
15:15 Bofors IK 5 : 4 ot Almtuna IS 2.20 4.19 2.60
15:15 Timra IK 2 : 0 Sodertalje SK 1.49 4.88 4.97
15:15 Oskarshamn 3 : 2 AIK Stockholm 2.48 4.17 2.28
18:00 Troja/Ljungby IF 3 : 2 Modo 2.25 4.18 2.55
 Futball Svédország Svenska Cupen 2017/2018
14:00 Kalmar FF 0 : 0 Atvidabergs FF 1.07 8.30 18.70
14:00 Oddevold 1 : 1 Halmstad BK 6.90 4.26 1.39
14:00 AIK Stockholm 2 : 1 Syrianska FC 1.06 9.00 20.80
16:00 IFK Göteborg 1 : 0 Varbergs BoIS FC 1.22 5.55 9.25
16:00 Norrkoping 1 : 1 Helsingborg 1.33 4.60 7.35
16:00 Sundsvall 4 : 2 Norrby IF 1.57 3.82 4.94
16:00 Sirius 1 : 1 Östers 1.91 3.35 3.57
 Futball Szerbia Super Liga 2017/2018
14:00 Zemun 3 : 0 Borac Cacak 1.38 3.76 8.50
14:30 Crvena zvezda Bělehrad 3 : 0 Javor Ivanjica 1.13 6.95 13.60
17:00 Čukarički Bělehrad 2 : 0 Ma 1.27 4.66 10.00
17:00 Rad Bělehrad 1 : 1 Radnik Surdulica 2.81 2.91 2.53
17:00 Vojvodina Nový Sad 2 : 0 Vozdovac Beograd 1.54 3.45 6.10
 Futball Szlovákia Super Liga 2017/2018
16:00 Zlaté Moravce 1 : 4 Trnava 3.28 3.09 2.10
 Kézilabda Szlovénia 1.liga M 2017/2018
19:00 Šmartno 99 RD 31 : 36 Ribnica - - -
19:00 Jeruzalem Omrož 35 : 30 Adria Krka - - -
 Futball Törökország Super League 2017/2018
11:30 Antalyaspor 2 : 1 Kayserispor II 2.81 3.09 2.52
14:00 Sivasspor 3 : 2 Ankaraspor BB 2.02 3.30 3.61
17:00 Fenerbahce 3 : 0 Alanyaspor K 1.30 5.55 8.05
 Futball Ukrajna Premier League 2017/2018
13:00 Stal Dniprodzerzhinsk 2 : 0 Oleksandrija FK 3.94 3.17 1.89
16:00 Vorskla Poltava 1 : 0 Veres Rivne 1.77 3.13 4.54
 Futball Uruguay Primera Division 2018
21:00 Montevideo Wanderers 1 : 1 Peňarol 4.48 3.34 1.74
21:00 Progreso 4 : 1 Rampla Juniors 1.94 3.23 3.66
21:00 Liverpool Montevideo 2 : 2 Boston River 2.29 3.01 3.03
21:00 Cerro - : - El Tanque Sisley - - -
 Futball Venezuela Primera Division 2018
20:30 Deportivo Anzoátegui SC 0 : 0 Portuguesa FC 2.67 3.05 2.46
21:00 Zulia Maracaibo 2 : 1 Monagas SC 1.87 3.22 3.70
 Futball Wales Premier League 2017/2018
15:30 Newtown AFC 1 : 2 Barry Town 1.90 3.43 3.59
15:30 Llandudno 3 : 2 Carmarthen Town 1.72 3.57 4.14
15:30 Cardiff MU 1 : 3 Newi Cefn Druids 2.09 3.22 3.20

Sportstatisztikák

  • futball, kosárlabda, kézilabda és jégkorong statisztika több, mint 90 bajnokságból (eredmények, tabellák, következő mérközések, egyéb hasznos statisztikák, fogadóirodák oddsai)
  • egyéb hasznos dolgok: tippek; csapatok, illetve bajnokságok összehasonlitása; sorozatok (pl. egy csapat hány meccset nyert meg sorozatban); kiválasztások ( pl. melyik csapat nem nyert még mérközést); friss eredmények, fórum, sportfogadás.
  • az eredmények rendszeresen frissülnek, naponta többször

A funkciók részletes leirásait megtalálod a Súgóban.